sensor_id;sensor_type;location;lat;lon;timestamp;P1;durP1;ratioP1;P2;durP2;ratioP2
45836;SDS011;31548;51.420;-0.040;2022-09-28T00:01:50;6.07;;;1.30;;
45836;SDS011;31548;51.420;-0.040;2022-09-28T00:04:18;4.25;;;0.90;;
45836;SDS011;31548;51.420;-0.040;2022-09-28T00:06:46;7.28;;;0.93;;
45836;SDS011;31548;51.420;-0.040;2022-09-28T00:09:14;5.65;;;0.77;;
45836;SDS011;31548;51.420;-0.040;2022-09-28T00:11:44;8.35;;;1.10;;
45836;SDS011;31548;51.420;-0.040;2022-09-28T00:14:12;6.13;;;0.80;;
45836;SDS011;31548;51.420;-0.040;2022-09-28T00:16:40;6.97;;;1.00;;
45836;SDS011;31548;51.420;-0.040;2022-09-28T00:19:09;6.40;;;0.80;;
45836;SDS011;31548;51.420;-0.040;2022-09-28T00:21:38;5.47;;;0.70;;
45836;SDS011;31548;51.420;-0.040;2022-09-28T00:24:09;7.53;;;0.82;;
45836;SDS011;31548;51.420;-0.040;2022-09-28T00:26:38;9.15;;;0.77;;
45836;SDS011;31548;51.420;-0.040;2022-09-28T00:29:12;11.75;;;1.70;;
45836;SDS011;31548;51.420;-0.040;2022-09-28T00:31:44;3.83;;;0.60;;
45836;SDS011;31548;51.420;-0.040;2022-09-28T00:34:12;16.17;;;1.20;;
45836;SDS011;31548;51.420;-0.040;2022-09-28T00:36:41;7.50;;;1.48;;
45836;SDS011;31548;51.420;-0.040;2022-09-28T00:39:11;19.70;;;1.17;;
45836;SDS011;31548;51.420;-0.040;2022-09-28T00:41:40;5.50;;;0.85;;
45836;SDS011;31548;51.420;-0.040;2022-09-28T00:46:59;7.13;;;0.88;;
45836;SDS011;31548;51.420;-0.040;2022-09-28T00:49:33;5.57;;;1.13;;
45836;SDS011;31548;51.420;-0.040;2022-09-28T00:52:10;5.43;;;0.55;;
45836;SDS011;31548;51.420;-0.040;2022-09-28T00:54:40;8.27;;;1.30;;
45836;SDS011;31548;51.420;-0.040;2022-09-28T00:57:11;8.75;;;1.17;;
45836;SDS011;31548;51.420;-0.040;2022-09-28T00:59:40;4.03;;;0.57;;
45836;SDS011;31548;51.420;-0.040;2022-09-28T01:02:08;4.68;;;0.70;;
45836;SDS011;31548;51.420;-0.040;2022-09-28T01:04:36;3.55;;;0.60;;
45836;SDS011;31548;51.420;-0.040;2022-09-28T01:07:04;7.10;;;0.70;;
45836;SDS011;31548;51.420;-0.040;2022-09-28T01:09:35;21.00;;;1.50;;
45836;SDS011;31548;51.420;-0.040;2022-09-28T01:12:04;4.65;;;0.60;;
45836;SDS011;31548;51.420;-0.040;2022-09-28T01:14:32;7.68;;;0.70;;
45836;SDS011;31548;51.420;-0.040;2022-09-28T01:17:07;8.15;;;1.45;;
45836;SDS011;31548;51.420;-0.040;2022-09-28T01:25:11;5.50;;;0.70;;
45836;SDS011;31548;51.420;-0.040;2022-09-28T01:27:51;10.32;;;1.25;;
45836;SDS011;31548;51.420;-0.040;2022-09-28T01:30:44;6.50;;;0.73;;
45836;SDS011;31548;51.420;-0.040;2022-09-28T01:33:18;4.32;;;0.80;;
45836;SDS011;31548;51.420;-0.040;2022-09-28T01:35:58;11.40;;;0.80;;
45836;SDS011;31548;51.420;-0.040;2022-09-28T01:38:36;5.30;;;0.65;;
45836;SDS011;31548;51.420;-0.040;2022-09-28T01:41:09;10.30;;;1.20;;
45836;SDS011;31548;51.420;-0.040;2022-09-28T01:43:39;10.40;;;0.93;;
45836;SDS011;31548;51.420;-0.040;2022-09-28T01:46:19;6.53;;;0.90;;
45836;SDS011;31548;51.420;-0.040;2022-09-28T01:49:01;6.63;;;0.75;;
45836;SDS011;31548;51.420;-0.040;2022-09-28T01:51:45;6.22;;;0.68;;
45836;SDS011;31548;51.420;-0.040;2022-09-28T01:54:25;3.00;;;0.55;;
45836;SDS011;31548;51.420;-0.040;2022-09-28T01:59:35;5.75;;;0.63;;
45836;SDS011;31548;51.420;-0.040;2022-09-28T02:02:15;11.65;;;0.45;;
45836;SDS011;31548;51.420;-0.040;2022-09-28T02:04:48;2.05;;;0.40;;
45836;SDS011;31548;51.420;-0.040;2022-09-28T02:07:24;5.35;;;0.50;;
45836;SDS011;31548;51.420;-0.040;2022-09-28T02:10:24;4.22;;;0.77;;
45836;SDS011;31548;51.420;-0.040;2022-09-28T02:13:01;4.88;;;0.95;;
45836;SDS011;31548;51.420;-0.040;2022-09-28T02:18:06;3.35;;;0.40;;
45836;SDS011;31548;51.420;-0.040;2022-09-28T02:20:37;2.80;;;0.47;;
45836;SDS011;31548;51.420;-0.040;2022-09-28T02:23:08;8.10;;;0.55;;
45836;SDS011;31548;51.420;-0.040;2022-09-28T02:25:39;7.07;;;0.40;;
45836;SDS011;31548;51.420;-0.040;2022-09-28T02:28:11;7.18;;;1.08;;
45836;SDS011;31548;51.420;-0.040;2022-09-28T02:30:40;2.72;;;0.50;;
45836;SDS011;31548;51.420;-0.040;2022-09-28T02:35:58;3.30;;;0.50;;
45836;SDS011;31548;51.420;-0.040;2022-09-28T02:38:28;2.60;;;0.50;;
45836;SDS011;31548;51.420;-0.040;2022-09-28T02:41:03;2.03;;;0.50;;
45836;SDS011;31548;51.420;-0.040;2022-09-28T02:50:20;3.70;;;0.77;;
45836;SDS011;31548;51.420;-0.040;2022-09-28T03:07:15;5.70;;;0.90;;
45836;SDS011;31548;51.420;-0.040;2022-09-28T03:12:48;3.45;;;0.43;;
45836;SDS011;31548;51.420;-0.040;2022-09-28T03:15:21;6.43;;;0.50;;
45836;SDS011;31548;51.420;-0.040;2022-09-28T03:17:56;1.55;;;0.63;;
45836;SDS011;31548;51.420;-0.040;2022-09-28T03:20:24;6.22;;;0.70;;
45836;SDS011;31548;51.420;-0.040;2022-09-28T03:22:53;5.38;;;0.50;;
45836;SDS011;31548;51.420;-0.040;2022-09-28T03:25:40;1.35;;;0.32;;
45836;SDS011;31548;51.420;-0.040;2022-09-28T03:28:07;3.33;;;0.80;;
45836;SDS011;31548;51.420;-0.040;2022-09-28T03:30:37;4.53;;;0.50;;
45836;SDS011;31548;51.420;-0.040;2022-09-28T03:33:05;5.45;;;0.30;;
45836;SDS011;31548;51.420;-0.040;2022-09-28T03:35:32;2.20;;;0.40;;
45836;SDS011;31548;51.420;-0.040;2022-09-28T03:37:59;1.45;;;0.40;;
45836;SDS011;31548;51.420;-0.040;2022-09-28T03:40:29;2.10;;;0.30;;
45836;SDS011;31548;51.420;-0.040;2022-09-28T03:42:56;4.55;;;0.50;;
45836;SDS011;31548;51.420;-0.040;2022-09-28T03:45:25;4.68;;;0.50;;
45836;SDS011;31548;51.420;-0.040;2022-09-28T03:47:53;3.22;;;0.40;;
45836;SDS011;31548;51.420;-0.040;2022-09-28T03:50:20;3.97;;;0.50;;
45836;SDS011;31548;51.420;-0.040;2022-09-28T03:52:47;1.08;;;0.35;;
45836;SDS011;31548;51.420;-0.040;2022-09-28T03:55:14;8.95;;;2.25;;
45836;SDS011;31548;51.420;-0.040;2022-09-28T03:57:42;4.90;;;0.40;;
45836;SDS011;31548;51.420;-0.040;2022-09-28T04:00:09;3.22;;;0.50;;
45836;SDS011;31548;51.420;-0.040;2022-09-28T04:02:39;1.38;;;0.50;;
45836;SDS011;31548;51.420;-0.040;2022-09-28T04:05:07;6.32;;;0.30;;
45836;SDS011;31548;51.420;-0.040;2022-09-28T04:07:36;5.30;;;1.20;;
45836;SDS011;31548;51.420;-0.040;2022-09-28T04:10:03;2.92;;;0.50;;
45836;SDS011;31548;51.420;-0.040;2022-09-28T04:12:31;3.35;;;0.50;;
45836;SDS011;31548;51.420;-0.040;2022-09-28T04:14:58;6.10;;;0.50;;
45836;SDS011;31548;51.420;-0.040;2022-09-28T04:17:25;6.13;;;0.30;;
45836;SDS011;31548;51.420;-0.040;2022-09-28T04:19:53;2.63;;;0.40;;
45836;SDS011;31548;51.420;-0.040;2022-09-28T04:22:39;7.13;;;0.50;;
45836;SDS011;31548;51.420;-0.040;2022-09-28T04:25:07;1.98;;;0.38;;
45836;SDS011;31548;51.420;-0.040;2022-09-28T04:27:34;6.97;;;0.47;;
45836;SDS011;31548;51.420;-0.040;2022-09-28T04:30:20;5.90;;;0.40;;
45836;SDS011;31548;51.420;-0.040;2022-09-28T04:32:48;2.85;;;0.40;;
45836;SDS011;31548;51.420;-0.040;2022-09-28T04:35:16;8.93;;;0.30;;
45836;SDS011;31548;51.420;-0.040;2022-09-28T04:37:45;3.15;;;0.30;;
45836;SDS011;31548;51.420;-0.040;2022-09-28T04:40:12;6.70;;;0.40;;
45836;SDS011;31548;51.420;-0.040;2022-09-28T04:42:39;2.42;;;0.30;;
45836;SDS011;31548;51.420;-0.040;2022-09-28T04:45:07;1.73;;;0.40;;
45836;SDS011;31548;51.420;-0.040;2022-09-28T04:47:38;2.55;;;0.47;;
45836;SDS011;31548;51.420;-0.040;2022-09-28T04:50:17;4.30;;;0.50;;
45836;SDS011;31548;51.420;-0.040;2022-09-28T04:53:02;3.75;;;0.50;;
45836;SDS011;31548;51.420;-0.040;2022-09-28T04:55:30;3.47;;;0.40;;
45836;SDS011;31548;51.420;-0.040;2022-09-28T04:57:58;3.95;;;0.30;;
45836;SDS011;31548;51.420;-0.040;2022-09-28T05:00:29;1.00;;;0.50;;
45836;SDS011;31548;51.420;-0.040;2022-09-28T05:03:27;6.80;;;0.50;;
45836;SDS011;31548;51.420;-0.040;2022-09-28T05:06:17;1.63;;;0.32;;
45836;SDS011;31548;51.420;-0.040;2022-09-28T05:08:46;4.35;;;0.40;;
45836;SDS011;31548;51.420;-0.040;2022-09-28T05:11:14;1.90;;;0.40;;
45836;SDS011;31548;51.420;-0.040;2022-09-28T05:13:43;3.88;;;0.40;;
45836;SDS011;31548;51.420;-0.040;2022-09-28T05:16:13;1.02;;;0.30;;
45836;SDS011;31548;51.420;-0.040;2022-09-28T05:19:08;1.63;;;0.40;;
45836;SDS011;31548;51.420;-0.040;2022-09-28T05:21:36;2.85;;;0.50;;
45836;SDS011;31548;51.420;-0.040;2022-09-28T05:24:03;3.42;;;0.55;;
45836;SDS011;31548;51.420;-0.040;2022-09-28T05:26:35;0.93;;;0.30;;
45836;SDS011;31548;51.420;-0.040;2022-09-28T05:29:04;2.35;;;0.40;;
45836;SDS011;31548;51.420;-0.040;2022-09-28T05:31:50;7.63;;;0.45;;
45836;SDS011;31548;51.420;-0.040;2022-09-28T05:34:32;2.28;;;0.30;;
45836;SDS011;31548;51.420;-0.040;2022-09-28T05:37:00;1.05;;;0.30;;
45836;SDS011;31548;51.420;-0.040;2022-09-28T05:39:29;4.82;;;0.45;;
45836;SDS011;31548;51.420;-0.040;2022-09-28T05:41:56;8.75;;;1.20;;
45836;SDS011;31548;51.420;-0.040;2022-09-28T05:44:23;2.83;;;0.30;;
45836;SDS011;31548;51.420;-0.040;2022-09-28T05:46:52;4.10;;;0.45;;
45836;SDS011;31548;51.420;-0.040;2022-09-28T05:49:21;3.15;;;0.77;;
45836;SDS011;31548;51.420;-0.040;2022-09-28T05:51:48;4.43;;;0.60;;
45836;SDS011;31548;51.420;-0.040;2022-09-28T05:54:15;1.80;;;0.40;;
45836;SDS011;31548;51.420;-0.040;2022-09-28T05:56:45;4.50;;;0.40;;
45836;SDS011;31548;51.420;-0.040;2022-09-28T05:59:12;10.93;;;0.70;;
45836;SDS011;31548;51.420;-0.040;2022-09-28T06:01:40;1.85;;;0.52;;
45836;SDS011;31548;51.420;-0.040;2022-09-28T06:04:09;3.42;;;0.60;;
45836;SDS011;31548;51.420;-0.040;2022-09-28T06:06:36;3.15;;;0.60;;
45836;SDS011;31548;51.420;-0.040;2022-09-28T06:09:04;5.05;;;0.60;;
45836;SDS011;31548;51.420;-0.040;2022-09-28T06:11:31;2.75;;;0.60;;
45836;SDS011;31548;51.420;-0.040;2022-09-28T06:14:04;10.02;;;0.55;;
45836;SDS011;31548;51.420;-0.040;2022-09-28T06:16:31;2.70;;;0.77;;
45836;SDS011;31548;51.420;-0.040;2022-09-28T06:19:00;3.45;;;0.60;;
45836;SDS011;31548;51.420;-0.040;2022-09-28T06:21:53;2.42;;;0.50;;
45836;SDS011;31548;51.420;-0.040;2022-09-28T06:24:24;9.30;;;0.70;;
45836;SDS011;31548;51.420;-0.040;2022-09-28T06:26:52;5.68;;;0.50;;
45836;SDS011;31548;51.420;-0.040;2022-09-28T06:29:20;3.20;;;0.40;;
45836;SDS011;31548;51.420;-0.040;2022-09-28T06:31:47;1.50;;;0.47;;
45836;SDS011;31548;51.420;-0.040;2022-09-28T06:34:15;3.13;;;0.50;;
45836;SDS011;31548;51.420;-0.040;2022-09-28T06:36:44;1.85;;;0.60;;
45836;SDS011;31548;51.420;-0.040;2022-09-28T06:39:12;7.32;;;0.52;;
45836;SDS011;31548;51.420;-0.040;2022-09-28T06:41:39;9.65;;;0.70;;
45836;SDS011;31548;51.420;-0.040;2022-09-28T06:44:15;2.17;;;0.40;;
45836;SDS011;31548;51.420;-0.040;2022-09-28T06:47:05;5.35;;;0.60;;
45836;SDS011;31548;51.420;-0.040;2022-09-28T06:49:53;8.18;;;0.70;;
45836;SDS011;31548;51.420;-0.040;2022-09-28T06:52:39;11.73;;;1.42;;
45836;SDS011;31548;51.420;-0.040;2022-09-28T06:55:26;3.22;;;0.47;;
45836;SDS011;31548;51.420;-0.040;2022-09-28T06:57:59;8.80;;;0.70;;
45836;SDS011;31548;51.420;-0.040;2022-09-28T07:00:30;3.65;;;0.52;;
45836;SDS011;31548;51.420;-0.040;2022-09-28T07:03:04;10.43;;;1.65;;
45836;SDS011;31548;51.420;-0.040;2022-09-28T07:05:53;8.68;;;1.35;;
45836;SDS011;31548;51.420;-0.040;2022-09-28T07:08:37;12.80;;;1.13;;
45836;SDS011;31548;51.420;-0.040;2022-09-28T07:11:36;4.85;;;0.60;;
45836;SDS011;31548;51.420;-0.040;2022-09-28T07:14:22;9.68;;;0.90;;
45836;SDS011;31548;51.420;-0.040;2022-09-28T07:17:09;4.15;;;0.85;;
45836;SDS011;31548;51.420;-0.040;2022-09-28T07:19:40;10.10;;;1.33;;
45836;SDS011;31548;51.420;-0.040;2022-09-28T07:22:08;7.65;;;1.30;;
45836;SDS011;31548;51.420;-0.040;2022-09-28T07:24:45;4.13;;;0.70;;
45836;SDS011;31548;51.420;-0.040;2022-09-28T07:27:32;3.97;;;0.82;;
45836;SDS011;31548;51.420;-0.040;2022-09-28T07:30:28;10.73;;;1.08;;
45836;SDS011;31548;51.420;-0.040;2022-09-28T07:33:25;5.05;;;0.70;;
45836;SDS011;31548;51.420;-0.040;2022-09-28T07:36:13;3.47;;;0.73;;
45836;SDS011;31548;51.420;-0.040;2022-09-28T07:38:43;6.95;;;0.93;;
45836;SDS011;31548;51.420;-0.040;2022-09-28T07:41:10;9.70;;;0.95;;
45836;SDS011;31548;51.420;-0.040;2022-09-28T07:43:42;10.30;;;1.13;;
45836;SDS011;31548;51.420;-0.040;2022-09-28T07:46:10;8.30;;;1.27;;
45836;SDS011;31548;51.420;-0.040;2022-09-28T07:48:45;6.80;;;0.93;;
45836;SDS011;31548;51.420;-0.040;2022-09-28T07:51:23;9.63;;;1.10;;
45836;SDS011;31548;51.420;-0.040;2022-09-28T07:54:09;11.68;;;1.27;;
45836;SDS011;31548;51.420;-0.040;2022-09-28T07:56:54;6.70;;;1.10;;
45836;SDS011;31548;51.420;-0.040;2022-09-28T07:59:45;8.90;;;1.42;;
45836;SDS011;31548;51.420;-0.040;2022-09-28T08:02:39;11.07;;;2.03;;
45836;SDS011;31548;51.420;-0.040;2022-09-28T08:05:07;13.38;;;1.42;;
45836;SDS011;31548;51.420;-0.040;2022-09-28T08:07:35;10.57;;;2.45;;
45836;SDS011;31548;51.420;-0.040;2022-09-28T08:10:07;7.47;;;1.50;;
45836;SDS011;31548;51.420;-0.040;2022-09-28T08:12:56;7.30;;;1.52;;
45836;SDS011;31548;51.420;-0.040;2022-09-28T08:15:52;7.18;;;1.15;;
45836;SDS011;31548;51.420;-0.040;2022-09-28T08:18:42;8.07;;;1.45;;
45836;SDS011;31548;51.420;-0.040;2022-09-28T08:21:10;10.73;;;1.25;;
45836;SDS011;31548;51.420;-0.040;2022-09-28T08:23:55;6.68;;;1.67;;
45836;SDS011;31548;51.420;-0.040;2022-09-28T08:26:23;6.18;;;1.45;;
45836;SDS011;31548;51.420;-0.040;2022-09-28T08:28:50;8.23;;;1.17;;
45836;SDS011;31548;51.420;-0.040;2022-09-28T08:31:36;12.85;;;1.67;;
45836;SDS011;31548;51.420;-0.040;2022-09-28T08:34:09;10.38;;;2.72;;
45836;SDS011;31548;51.420;-0.040;2022-09-28T08:37:14;10.70;;;1.35;;
45836;SDS011;31548;51.420;-0.040;2022-09-28T08:40:00;4.50;;;1.50;;
45836;SDS011;31548;51.420;-0.040;2022-09-28T08:43:01;8.88;;;1.50;;
45836;SDS011;31548;51.420;-0.040;2022-09-28T08:45:39;7.82;;;1.60;;
45836;SDS011;31548;51.420;-0.040;2022-09-28T08:48:25;4.38;;;1.40;;
45836;SDS011;31548;51.420;-0.040;2022-09-28T08:51:58;6.63;;;1.45;;
45836;SDS011;31548;51.420;-0.040;2022-09-28T08:57:30;9.82;;;2.90;;
45836;SDS011;31548;51.420;-0.040;2022-09-28T09:00:09;9.55;;;2.00;;
45836;SDS011;31548;51.420;-0.040;2022-09-28T09:02:57;10.27;;;1.98;;
45836;SDS011;31548;51.420;-0.040;2022-09-28T09:05:37;11.30;;;2.10;;
45836;SDS011;31548;51.420;-0.040;2022-09-28T09:08:50;9.68;;;2.10;;
45836;SDS011;31548;51.420;-0.040;2022-09-28T09:23:37;9.68;;;1.98;;
45836;SDS011;31548;51.420;-0.040;2022-09-28T09:26:19;6.45;;;1.13;;
45836;SDS011;31548;51.420;-0.040;2022-09-28T09:54:35;7.57;;;0.70;;
45836;SDS011;31548;51.420;-0.040;2022-09-28T09:57:11;3.95;;;0.95;;
45836;SDS011;31548;51.420;-0.040;2022-09-28T09:59:49;1.75;;;0.63;;
45836;SDS011;31548;51.420;-0.040;2022-09-28T10:02:39;7.80;;;0.80;;
45836;SDS011;31548;51.420;-0.040;2022-09-28T10:05:25;6.20;;;1.20;;
45836;SDS011;31548;51.420;-0.040;2022-09-28T10:08:03;6.65;;;1.17;;
45836;SDS011;31548;51.420;-0.040;2022-09-28T10:13:19;8.18;;;0.80;;
45836;SDS011;31548;51.420;-0.040;2022-09-28T10:15:47;5.93;;;1.00;;
45836;SDS011;31548;51.420;-0.040;2022-09-28T10:18:34;2.90;;;0.77;;
45836;SDS011;31548;51.420;-0.040;2022-09-28T10:21:21;8.90;;;1.23;;
45836;SDS011;31548;51.420;-0.040;2022-09-28T10:26:29;5.22;;;0.98;;
45836;SDS011;31548;51.420;-0.040;2022-09-28T10:29:04;6.63;;;0.70;;
45836;SDS011;31548;51.420;-0.040;2022-09-28T10:31:59;2.45;;;0.47;;
45836;SDS011;31548;51.420;-0.040;2022-09-28T10:34:33;2.88;;;0.50;;
45836;SDS011;31548;51.420;-0.040;2022-09-28T10:39:54;1.42;;;0.32;;
45836;SDS011;31548;51.420;-0.040;2022-09-28T10:42:30;1.58;;;0.40;;
45836;SDS011;31548;51.420;-0.040;2022-09-28T10:45:02;3.75;;;0.30;;
45836;SDS011;31548;51.420;-0.040;2022-09-28T10:47:42;4.50;;;0.30;;
45836;SDS011;31548;51.420;-0.040;2022-09-28T10:50:22;1.05;;;0.20;;
45836;SDS011;31548;51.420;-0.040;2022-09-28T10:53:18;3.55;;;0.30;;
45836;SDS011;31548;51.420;-0.040;2022-09-28T10:56:19;2.53;;;0.50;;
45836;SDS011;31548;51.420;-0.040;2022-09-28T10:58:57;2.53;;;0.30;;
45836;SDS011;31548;51.420;-0.040;2022-09-28T11:01:39;0.68;;;0.50;;
45836;SDS011;31548;51.420;-0.040;2022-09-28T11:04:13;6.80;;;0.35;;
45836;SDS011;31548;51.420;-0.040;2022-09-28T11:06:48;0.57;;;0.20;;
45836;SDS011;31548;51.420;-0.040;2022-09-28T11:09:33;1.85;;;0.30;;
45836;SDS011;31548;51.420;-0.040;2022-09-28T11:12:12;3.00;;;0.22;;
45836;SDS011;31548;51.420;-0.040;2022-09-28T11:14:41;6.20;;;0.20;;
45836;SDS011;31548;51.420;-0.040;2022-09-28T11:19:56;3.33;;;0.30;;
45836;SDS011;31548;51.420;-0.040;2022-09-28T11:22:47;5.73;;;0.30;;
45836;SDS011;31548;51.420;-0.040;2022-09-28T11:25:24;2.08;;;0.20;;
45836;SDS011;31548;51.420;-0.040;2022-09-28T11:33:25;2.05;;;0.20;;
45836;SDS011;31548;51.420;-0.040;2022-09-28T11:39:11;4.00;;;0.13;;
45836;SDS011;31548;51.420;-0.040;2022-09-28T11:42:06;0.40;;;0.30;;
45836;SDS011;31548;51.420;-0.040;2022-09-28T11:44:47;2.58;;;0.30;;
45836;SDS011;31548;51.420;-0.040;2022-09-28T11:49:50;1.17;;;0.20;;
45836;SDS011;31548;51.420;-0.040;2022-09-28T11:55:18;0.77;;;0.30;;
45836;SDS011;31548;51.420;-0.040;2022-09-28T11:57:59;1.67;;;0.20;;
45836;SDS011;31548;51.420;-0.040;2022-09-28T12:00:48;1.10;;;0.20;;
45836;SDS011;31548;51.420;-0.040;2022-09-28T12:03:53;2.63;;;0.20;;
45836;SDS011;31548;51.420;-0.040;2022-09-28T12:06:28;1.90;;;0.28;;
45836;SDS011;31548;51.420;-0.040;2022-09-28T12:09:04;0.47;;;0.20;;
45836;SDS011;31548;51.420;-0.040;2022-09-28T12:11:53;2.08;;;0.30;;
45836;SDS011;31548;51.420;-0.040;2022-09-28T12:14:57;1.88;;;0.40;;
45836;SDS011;31548;51.420;-0.040;2022-09-28T12:20:28;2.30;;;0.30;;
45836;SDS011;31548;51.420;-0.040;2022-09-28T12:25:26;3.95;;;0.20;;
45836;SDS011;31548;51.420;-0.040;2022-09-28T12:28:00;2.35;;;0.22;;
45836;SDS011;31548;51.420;-0.040;2022-09-28T12:30:34;3.83;;;0.30;;
45836;SDS011;31548;51.420;-0.040;2022-09-28T12:56:10;1.65;;;0.30;;
45836;SDS011;31548;51.420;-0.040;2022-09-28T13:07:39;2.65;;;0.55;;
45836;SDS011;31548;51.420;-0.040;2022-09-28T13:10:25;1.50;;;0.32;;
45836;SDS011;31548;51.420;-0.040;2022-09-28T13:24:20;2.60;;;0.45;;
45836;SDS011;31548;51.420;-0.040;2022-09-28T13:27:26;0.82;;;0.35;;
45836;SDS011;31548;51.420;-0.040;2022-09-28T13:29:56;1.50;;;0.17;;
45836;SDS011;31548;51.420;-0.040;2022-09-28T13:32:26;2.47;;;0.20;;
45836;SDS011;31548;51.420;-0.040;2022-09-28T13:34:57;0.57;;;0.57;;
45836;SDS011;31548;51.420;-0.040;2022-09-28T13:37:27;2.20;;;0.50;;
45836;SDS011;31548;51.420;-0.040;2022-09-28T13:39:55;1.73;;;0.40;;
45836;SDS011;31548;51.420;-0.040;2022-09-28T13:52:55;5.03;;;0.20;;
45836;SDS011;31548;51.420;-0.040;2022-09-28T13:58:04;1.85;;;0.30;;
45836;SDS011;31548;51.420;-0.040;2022-09-28T14:00:52;2.10;;;0.20;;
45836;SDS011;31548;51.420;-0.040;2022-09-28T14:06:40;0.75;;;0.20;;
45836;SDS011;31548;51.420;-0.040;2022-09-28T14:14:26;4.38;;;0.22;;
45836;SDS011;31548;51.420;-0.040;2022-09-28T14:25:35;1.30;;;0.20;;
45836;SDS011;31548;51.420;-0.040;2022-09-28T14:31:24;0.32;;;0.20;;
45836;SDS011;31548;51.420;-0.040;2022-09-28T14:33:58;4.70;;;0.30;;
45836;SDS011;31548;51.420;-0.040;2022-09-28T14:36:33;0.80;;;0.38;;
45836;SDS011;31548;51.420;-0.040;2022-09-28T14:39:28;1.25;;;0.30;;
45836;SDS011;31548;51.420;-0.040;2022-09-28T14:42:25;0.55;;;0.20;;
45836;SDS011;31548;51.420;-0.040;2022-09-28T14:47:33;0.35;;;0.20;;
45836;SDS011;31548;51.420;-0.040;2022-09-28T14:50:21;1.08;;;0.30;;
45836;SDS011;31548;51.420;-0.040;2022-09-28T14:52:52;0.30;;;0.20;;
45836;SDS011;31548;51.420;-0.040;2022-09-28T14:55:40;2.05;;;0.30;;
45836;SDS011;31548;51.420;-0.040;2022-09-28T14:58:16;0.50;;;0.20;;
45836;SDS011;31548;51.420;-0.040;2022-09-28T15:00:51;2.47;;;0.40;;
45836;SDS011;31548;51.420;-0.040;2022-09-28T15:03:26;0.90;;;0.20;;
45836;SDS011;31548;51.420;-0.040;2022-09-28T15:05:56;1.83;;;0.20;;
45836;SDS011;31548;51.420;-0.040;2022-09-28T15:08:34;1.38;;;0.20;;
45836;SDS011;31548;51.420;-0.040;2022-09-28T15:11:05;1.05;;;0.30;;
45836;SDS011;31548;51.420;-0.040;2022-09-28T15:13:40;2.30;;;0.20;;
45836;SDS011;31548;51.420;-0.040;2022-09-28T15:16:09;2.30;;;0.25;;
45836;SDS011;31548;51.420;-0.040;2022-09-28T15:18:56;0.60;;;0.57;;
45836;SDS011;31548;51.420;-0.040;2022-09-28T15:21:32;2.53;;;0.30;;
45836;SDS011;31548;51.420;-0.040;2022-09-28T15:24:02;1.75;;;0.28;;
45836;SDS011;31548;51.420;-0.040;2022-09-28T15:26:48;0.68;;;0.20;;
45836;SDS011;31548;51.420;-0.040;2022-09-28T15:29:16;0.93;;;0.10;;
45836;SDS011;31548;51.420;-0.040;2022-09-28T15:31:45;2.40;;;0.20;;
45836;SDS011;31548;51.420;-0.040;2022-09-28T15:34:35;1.95;;;0.40;;
45836;SDS011;31548;51.420;-0.040;2022-09-28T15:37:19;1.00;;;0.20;;
45836;SDS011;31548;51.420;-0.040;2022-09-28T15:39:48;3.45;;;0.40;;
45836;SDS011;31548;51.420;-0.040;2022-09-28T15:42:20;4.88;;;0.52;;
45836;SDS011;31548;51.420;-0.040;2022-09-28T15:45:02;0.30;;;0.15;;
45836;SDS011;31548;51.420;-0.040;2022-09-28T15:47:33;1.50;;;0.30;;
45836;SDS011;31548;51.420;-0.040;2022-09-28T15:50:02;1.30;;;0.30;;
45836;SDS011;31548;51.420;-0.040;2022-09-28T15:52:44;1.38;;;0.20;;
45836;SDS011;31548;51.420;-0.040;2022-09-28T15:55:32;2.90;;;0.25;;
45836;SDS011;31548;51.420;-0.040;2022-09-28T15:58:18;1.85;;;0.30;;
45836;SDS011;31548;51.420;-0.040;2022-09-28T16:00:49;5.22;;;0.40;;
45836;SDS011;31548;51.420;-0.040;2022-09-28T16:03:37;0.30;;;0.20;;
45836;SDS011;31548;51.420;-0.040;2022-09-28T16:06:09;0.40;;;0.20;;
45836;SDS011;31548;51.420;-0.040;2022-09-28T16:11:09;1.83;;;0.65;;
45836;SDS011;31548;51.420;-0.040;2022-09-28T16:14:00;1.02;;;0.20;;
45836;SDS011;31548;51.420;-0.040;2022-09-28T16:16:47;0.40;;;0.20;;
45836;SDS011;31548;51.420;-0.040;2022-09-28T16:19:22;1.13;;;0.28;;
45836;SDS011;31548;51.420;-0.040;2022-09-28T16:21:54;1.15;;;0.20;;
45836;SDS011;31548;51.420;-0.040;2022-09-28T16:24:25;1.20;;;0.20;;
45836;SDS011;31548;51.420;-0.040;2022-09-28T16:27:05;1.55;;;0.20;;
45836;SDS011;31548;51.420;-0.040;2022-09-28T16:29:38;2.25;;;0.20;;
45836;SDS011;31548;51.420;-0.040;2022-09-28T16:35:15;0.40;;;0.10;;
45836;SDS011;31548;51.420;-0.040;2022-09-28T16:37:44;1.38;;;0.68;;
45836;SDS011;31548;51.420;-0.040;2022-09-28T16:40:22;0.98;;;0.20;;
45836;SDS011;31548;51.420;-0.040;2022-09-28T16:42:50;1.35;;;0.52;;
45836;SDS011;31548;51.420;-0.040;2022-09-28T16:45:21;0.50;;;0.22;;
45836;SDS011;31548;51.420;-0.040;2022-09-28T16:47:51;0.65;;;0.10;;
45836;SDS011;31548;51.420;-0.040;2022-09-28T16:50:22;1.20;;;0.30;;
45836;SDS011;31548;51.420;-0.040;2022-09-28T16:53:04;1.95;;;0.10;;
45836;SDS011;31548;51.420;-0.040;2022-09-28T16:55:59;2.35;;;0.30;;
45836;SDS011;31548;51.420;-0.040;2022-09-28T16:58:28;0.10;;;0.10;;
45836;SDS011;31548;51.420;-0.040;2022-09-28T17:00:57;1.02;;;0.20;;
45836;SDS011;31548;51.420;-0.040;2022-09-28T17:03:25;2.05;;;0.30;;
45836;SDS011;31548;51.420;-0.040;2022-09-28T17:05:53;1.30;;;0.20;;
45836;SDS011;31548;51.420;-0.040;2022-09-28T17:08:21;0.30;;;0.20;;
45836;SDS011;31548;51.420;-0.040;2022-09-28T17:10:51;1.10;;;0.30;;
45836;SDS011;31548;51.420;-0.040;2022-09-28T17:13:44;1.15;;;0.30;;
45836;SDS011;31548;51.420;-0.040;2022-09-28T17:16:15;1.10;;;0.30;;
45836;SDS011;31548;51.420;-0.040;2022-09-28T17:18:50;2.35;;;0.50;;
45836;SDS011;31548;51.420;-0.040;2022-09-28T17:21:18;3.78;;;0.57;;
45836;SDS011;31548;51.420;-0.040;2022-09-28T17:23:46;3.17;;;0.80;;
45836;SDS011;31548;51.420;-0.040;2022-09-28T17:26:33;2.13;;;0.70;;
45836;SDS011;31548;51.420;-0.040;2022-09-28T17:29:01;4.03;;;0.90;;
45836;SDS011;31548;51.420;-0.040;2022-09-28T17:31:29;2.10;;;0.90;;
45836;SDS011;31548;51.420;-0.040;2022-09-28T17:33:56;4.07;;;0.80;;
45836;SDS011;31548;51.420;-0.040;2022-09-28T17:36:24;5.57;;;0.90;;
45836;SDS011;31548;51.420;-0.040;2022-09-28T17:38:52;3.72;;;0.88;;
45836;SDS011;31548;51.420;-0.040;2022-09-28T17:41:19;3.08;;;0.88;;
45836;SDS011;31548;51.420;-0.040;2022-09-28T17:43:47;3.33;;;1.00;;
45836;SDS011;31548;51.420;-0.040;2022-09-28T17:46:31;3.25;;;0.85;;
45836;SDS011;31548;51.420;-0.040;2022-09-28T17:49:03;2.55;;;0.50;;
45836;SDS011;31548;51.420;-0.040;2022-09-28T17:51:33;4.60;;;0.60;;
45836;SDS011;31548;51.420;-0.040;2022-09-28T17:54:03;3.42;;;0.85;;
45836;SDS011;31548;51.420;-0.040;2022-09-28T17:56:32;2.35;;;0.80;;
45836;SDS011;31548;51.420;-0.040;2022-09-28T17:59:02;1.20;;;0.50;;
45836;SDS011;31548;51.420;-0.040;2022-09-28T18:01:32;3.72;;;0.70;;
45836;SDS011;31548;51.420;-0.040;2022-09-28T18:04:01;1.77;;;0.50;;
45836;SDS011;31548;51.420;-0.040;2022-09-28T18:06:30;2.40;;;0.60;;
45836;SDS011;31548;51.420;-0.040;2022-09-28T18:09:03;1.75;;;0.65;;
45836;SDS011;31548;51.420;-0.040;2022-09-28T18:11:31;4.55;;;1.38;;
45836;SDS011;31548;51.420;-0.040;2022-09-28T18:13:59;7.68;;;2.25;;
45836;SDS011;31548;51.420;-0.040;2022-09-28T18:16:27;5.93;;;1.80;;
45836;SDS011;31548;51.420;-0.040;2022-09-28T18:18:54;10.13;;;3.30;;
45836;SDS011;31548;51.420;-0.040;2022-09-28T18:21:22;9.05;;;3.00;;
45836;SDS011;31548;51.420;-0.040;2022-09-28T18:23:49;7.43;;;2.40;;
45836;SDS011;31548;51.420;-0.040;2022-09-28T18:26:17;6.38;;;1.80;;
45836;SDS011;31548;51.420;-0.040;2022-09-28T18:28:47;6.03;;;1.33;;
45836;SDS011;31548;51.420;-0.040;2022-09-28T18:31:14;6.53;;;1.27;;
45836;SDS011;31548;51.420;-0.040;2022-09-28T18:33:44;6.85;;;1.52;;
45836;SDS011;31548;51.420;-0.040;2022-09-28T18:36:13;2.95;;;1.05;;
45836;SDS011;31548;51.420;-0.040;2022-09-28T18:38:41;2.13;;;0.90;;